Time;durP1;ratioP1;P1;durP2;ratioP2;P2;SDS_P1;SDS_P2;PMS_P1;PMS_P2;Temp;Humidity;BMP_temperature;BMP_pressure;BME280_temperature;BME280_humidity;BME280_pressure;Samples;Min_cycle;Max_cycle;Signal;HPM_P1;HPM_P2
2023/11/05 00:00:03;;;;;;;1.15;1.02;;;;;;;;;;5061167;28;20036;-85
2023/11/05 00:02:30;;;;;;;2.20;1.08;;;;;;;;;;5055548;28;20078;-86
2023/11/05 00:04:59;;;;;;;2.15;1.27;;;;;;;;;;5055511;28;20029;-85
2023/11/05 00:07:25;;;;;;;1.83;1.35;;;;;;;;;;5032019;28;20516;-85
2023/11/05 00:09:54;;;;;;;1.83;1.25;;;;;;;;;;5031798;28;20041;-86
2023/11/05 00:12:26;;;;;;;2.38;1.00;;;;;;;;;;5031565;28;20039;-86
2023/11/05 00:15:06;;;;;;;1.15;1.05;;;;;;;;;;5011794;28;20028;-86
2023/11/05 00:18:06;;;;;;;;;;;;;;;;;;;;;
2023/11/05 00:20:43;;;;;;;1.15;1.00;;;;;;;;;;5031866;28;20029;-86
2023/11/05 00:23:11;;;;;;;1.58;1.30;;;;;;;;;;5031911;28;20037;-86
2023/11/05 00:25:41;;;;;;;1.88;1.38;;;;;;;;;;5031679;28;20033;-87
2023/11/05 00:28:10;;;;;;;1.75;1.25;;;;;;;;;;5031827;28;20124;-86
2023/11/05 00:30:51;;;;;;;3.10;1.73;;;;;;;;;;5031189;28;20120;-87
2023/11/05 00:33:35;;;;;;;1.35;1.00;;;;;;;;;;5031285;28;20082;-86
2023/11/05 00:36:13;;;;;;;2.17;1.88;;;;;;;;;;5031893;28;20394;-87
2023/11/05 00:38:41;;;;;;;1.30;1.05;;;;;;;;;;5013653;28;20091;-87
2023/11/05 00:41:14;;;;;;;1.98;1.13;;;;;;;;;;5010615;28;20040;-86
2023/11/05 00:43:40;;;;;;;2.17;1.25;;;;;;;;;;5009548;28;20034;-87
2023/11/05 00:46:06;;;;;;;1.35;0.93;;;;;;;;;;5011422;28;20034;-86
2023/11/05 00:48:32;;;;;;;1.33;0.90;;;;;;;;;;5011571;28;20033;-86
2023/11/05 00:51:02;;;;;;;1.23;0.82;;;;;;;;;;5011817;28;20036;-86
2023/11/05 00:53:32;;;;;;;1.00;0.80;;;;;;;;;;5010219;28;20050;-86
2023/11/05 00:56:11;;;;;;;0.88;0.75;;;;;;;;;;4995566;28;20049;-86
2023/11/05 00:58:38;;;;;;;0.68;0.68;;;;;;;;;;5011869;28;20044;-87
2023/11/05 01:01:18;;;;;;;1.45;1.17;;;;;;;;;;5011479;28;20021;-87
2023/11/05 01:03:52;;;;;;;1.13;0.80;;;;;;;;;;5027065;28;20033;-86
2023/11/05 01:07:20;;;;;;;1.17;0.98;;;;;;;;;;5014831;28;20038;-86
2023/11/05 01:09:52;;;;;;;1.40;1.23;;;;;;;;;;5015060;28;20422;-86
2023/11/05 01:12:24;;;;;;;0.93;0.75;;;;;;;;;;5011277;28;20034;-86
2023/11/05 01:14:57;;;;;;;0.60;0.60;;;;;;;;;;4993979;28;20073;-86
2023/11/05 01:17:46;;;;;;;6.07;0.95;;;;;;;;;;4995724;28;20484;-87
2023/11/05 01:20:23;;;;;;;1.00;0.90;;;;;;;;;;5051978;28;20749;-86
2023/11/05 01:23:17;;;;;;;1.10;0.80;;;;;;;;;;5051752;28;20028;-86
2023/11/05 01:26:42;;;;;;;;;;;;;;;;;;;;;
2023/11/05 01:32:22;;;;;;;;;;;;;;;;;;;;;
2023/11/05 01:34:49;;;;;;;0.98;0.82;;;;;;;;;;5030230;28;20033;-87
2023/11/05 01:38:08;;;;;;;1.08;0.88;;;;;;;;;;5015698;28;20025;-86
2023/11/05 01:40:36;;;;;;;1.02;0.85;;;;;;;;;;5020674;28;20475;-83
2023/11/05 01:43:24;;;;;;;0.73;0.63;;;;;;;;;;4973200;28;20477;-84
2023/11/05 01:45:51;;;;;;;1.05;0.80;;;;;;;;;;4972350;28;20128;-86
2023/11/05 01:48:17;;;;;;;0.90;0.82;;;;;;;;;;4989380;28;20030;-82
2023/11/05 01:50:43;;;;;;;1.92;1.08;;;;;;;;;;4991765;28;20030;-84
2023/11/05 01:53:09;;;;;;;1.10;1.00;;;;;;;;;;4995115;28;20124;-84
2023/11/05 01:55:37;;;;;;;0.75;0.65;;;;;;;;;;4995175;28;20031;-86
2023/11/05 01:58:06;;;;;;;0.70;0.70;;;;;;;;;;4979271;28;20035;-85
2023/11/05 02:00:35;;;;;;;0.68;0.68;;;;;;;;;;4979700;28;20098;-85
2023/11/05 02:03:13;;;;;;;0.80;0.70;;;;;;;;;;4940707;29;20178;-86
2023/11/05 02:05:44;;;;;;;1.20;1.00;;;;;;;;;;4945042;29;20074;-85
2023/11/05 02:08:13;;;;;;;0.98;0.82;;;;;;;;;;4940445;29;20046;-85
2023/11/05 02:10:46;;;;;;;1.00;0.80;;;;;;;;;;4940131;29;20036;-85
2023/11/05 02:13:15;;;;;;;0.95;0.77;;;;;;;;;;4954181;29;20482;-86
2023/11/05 02:15:42;;;;;;;0.90;0.80;;;;;;;;;;4940272;29;20034;-85
2023/11/05 02:18:08;;;;;;;0.70;0.60;;;;;;;;;;4936869;29;20051;-86
2023/11/05 02:20:34;;;;;;;0.90;0.70;;;;;;;;;;4966454;28;20385;-84
2023/11/05 02:23:01;;;;;;;0.60;0.57;;;;;;;;;;4959207;28;20090;-85
2023/11/05 02:25:38;;;;;;;1.50;1.25;;;;;;;;;;4959419;28;20068;-85
2023/11/05 02:28:07;;;;;;;0.70;0.60;;;;;;;;;;4958944;28;20075;-84
2023/11/05 02:30:49;;;;;;;;;;;;;;;;;;;;;
2023/11/05 02:34:01;;;;;;;0.70;0.60;;;;;;;;;;4982684;28;20038;-87
2023/11/05 02:36:27;;;;;;;1.50;1.40;;;;;;;;;;5018386;28;20553;-84
2023/11/05 02:38:59;;;;;;;1.27;1.00;;;;;;;;;;5014596;28;20119;-86
2023/11/05 02:41:41;;;;;;;0.70;0.70;;;;;;;;;;5014221;28;20034;-85
2023/11/05 02:44:10;;;;;;;0.80;0.70;;;;;;;;;;4996887;28;20038;-86
2023/11/05 02:46:45;;;;;;;0.80;0.70;;;;;;;;;;5014406;28;20478;-86
2023/11/05 02:49:21;;;;;;;0.90;0.73;;;;;;;;;;5034704;28;20123;-85
2023/11/05 02:52:11;;;;;;;0.55;0.55;;;;;;;;;;5048699;28;20032;-85
2023/11/05 02:55:00;;;;;;;0.90;0.80;;;;;;;;;;5033842;28;20469;-86
2023/11/05 02:57:39;;;;;;;;;;;;;;;;;;;;;
2023/11/05 03:00:21;;;;;;;0.60;0.60;;;;;;;;;;5033402;28;20040;-86
2023/11/05 03:03:13;;;;;;;0.95;0.75;;;;;;;;;;5016025;28;20045;-87
2023/11/05 03:05:49;;;;;;;0.60;0.60;;;;;;;;;;5016613;28;20479;-86
2023/11/05 03:08:18;;;;;;;1.48;1.00;;;;;;;;;;5016974;28;20040;-85
2023/11/05 03:11:08;;;;;;;3.45;1.02;;;;;;;;;;5042636;28;20021;-86
2023/11/05 03:13:43;;;;;;;0.80;0.70;;;;;;;;;;5020948;28;20071;-85
2023/11/05 03:16:14;;;;;;;0.75;0.63;;;;;;;;;;5018446;28;20033;-85
2023/11/05 03:18:49;;;;;;;0.60;0.60;;;;;;;;;;5017845;28;20180;-84
2023/11/05 03:21:16;;;;;;;0.80;0.70;;;;;;;;;;5017188;28;20045;-86
2023/11/05 03:23:57;;;;;;;0.85;0.73;;;;;;;;;;5012119;28;20111;-85
2023/11/05 03:26:28;;;;;;;0.90;0.70;;;;;;;;;;5037014;28;20033;-85
2023/11/05 03:29:10;;;;;;;;;;;;;;;;;;;;;
2023/11/05 03:31:40;;;;;;;0.60;0.60;;;;;;;;;;5074991;28;20021;-85
2023/11/05 03:34:12;;;;;;;0.80;0.70;;;;;;;;;;5053484;28;20025;-85
2023/11/05 03:37:01;;;;;;;0.70;0.70;;;;;;;;;;5068528;28;20033;-86
2023/11/05 03:39:29;;;;;;;0.70;0.70;;;;;;;;;;5073104;28;20028;-85
2023/11/05 03:42:25;;;;;;;0.70;0.70;;;;;;;;;;5072884;28;20032;-85
2023/11/05 03:44:57;;;;;;;0.82;0.70;;;;;;;;;;5071903;28;20033;-85
2023/11/05 03:47:23;;;;;;;0.85;0.77;;;;;;;;;;5053203;28;20033;-86
2023/11/05 03:49:49;;;;;;;0.70;0.70;;;;;;;;;;5053368;28;20493;-85
2023/11/05 03:52:17;;;;;;;2.63;0.90;;;;;;;;;;5075599;28;20036;-85
2023/11/05 03:54:51;;;;;;;1.60;0.90;;;;;;;;;;5055706;28;20028;-85
2023/11/05 03:57:28;;;;;;;0.90;0.80;;;;;;;;;;5053699;28;20379;-85
2023/11/05 04:00:03;;;;;;;0.82;0.70;;;;;;;;;;5054707;28;20165;-86
2023/11/05 04:02:35;;;;;;;0.75;0.70;;;;;;;;;;5053121;28;20029;-85
2023/11/05 04:05:01;;;;;;;0.80;0.70;;;;;;;;;;5056556;28;20017;-84
2023/11/05 04:07:28;;;;;;;0.80;0.70;;;;;;;;;;5053205;28;20545;-85
2023/11/05 04:09:57;;;;;;;1.00;0.90;;;;;;;;;;5054006;28;20048;-85
2023/11/05 04:12:26;;;;;;;0.80;0.70;;;;;;;;;;5052874;28;20474;-84
2023/11/05 04:14:52;;;;;;;0.85;0.70;;;;;;;;;;5072587;28;20104;-84
2023/11/05 04:17:18;;;;;;;1.00;0.70;;;;;;;;;;5074134;28;20020;-85
2023/11/05 04:19:44;;;;;;;0.80;0.70;;;;;;;;;;5053777;28;20025;-84
2023/11/05 04:22:16;;;;;;;1.00;0.90;;;;;;;;;;5032026;28;20103;-85
2023/11/05 04:25:10;;;;;;;0.88;0.70;;;;;;;;;;5052447;28;20033;-85
2023/11/05 04:27:36;;;;;;;0.90;0.70;;;;;;;;;;5035449;28;20044;-85
2023/11/05 04:30:03;;;;;;;0.60;0.60;;;;;;;;;;5039644;28;20057;-85
2023/11/05 04:32:32;;;;;;;0.70;0.70;;;;;;;;;;5024130;28;20064;-85
2023/11/05 04:35:07;;;;;;;0.75;0.70;;;;;;;;;;5040942;28;20087;-86
2023/11/05 04:37:38;;;;;;;0.85;0.60;;;;;;;;;;5040907;28;20029;-84
2023/11/05 04:40:06;;;;;;;0.95;0.70;;;;;;;;;;5041407;28;20063;-86
2023/11/05 04:42:36;;;;;;;0.60;0.60;;;;;;;;;;5040754;28;20037;-85
2023/11/05 04:45:36;;;;;;;;;;;;;;;;;;;;;
2023/11/05 04:48:13;;;;;;;0.70;0.70;;;;;;;;;;5051547;28;20519;-85
2023/11/05 04:50:59;;;;;;;0.70;0.60;;;;;;;;;;5034509;28;20075;-85
2023/11/05 04:56:56;;;;;;;0.93;0.75;;;;;;;;;;4972863;28;20370;-85
2023/11/05 04:59:32;;;;;;;0.73;0.70;;;;;;;;;;4972772;28;20026;-83
2023/11/05 05:02:08;;;;;;;0.82;0.70;;;;;;;;;;4989211;28;20039;-84
2023/11/05 05:04:58;;;;;;;;;;;;;;;;;;;;;
2023/11/05 05:07:39;;;;;;;0.90;0.80;;;;;;;;;;4973604;28;20041;-83
2023/11/05 05:10:35;;;;;;;0.90;0.70;;;;;;;;;;4972628;28;20019;-84
2023/11/05 05:13:09;;;;;;;0.80;0.70;;;;;;;;;;4972219;28;20043;-84
2023/11/05 05:16:04;;;;;;;0.80;0.70;;;;;;;;;;4972711;28;20165;-84
2023/11/05 05:18:33;;;;;;;0.80;0.70;;;;;;;;;;4953040;28;20528;-85
2023/11/05 05:21:06;;;;;;;0.90;0.80;;;;;;;;;;4953029;29;20035;-84
2023/11/05 05:23:44;;;;;;;0.55;0.55;;;;;;;;;;4953487;29;20066;-85
2023/11/05 05:26:13;;;;;;;0.88;0.80;;;;;;;;;;4954102;28;20036;-85
2023/11/05 05:28:47;;;;;;;0.73;0.70;;;;;;;;;;4956973;29;20026;-85
2023/11/05 05:31:16;;;;;;;0.80;0.70;;;;;;;;;;4956889;29;20126;-86
2023/11/05 05:33:45;;;;;;;0.90;0.80;;;;;;;;;;4993399;28;20037;-86
2023/11/05 05:36:12;;;;;;;0.70;0.68;;;;;;;;;;5019314;28;20061;-84
2023/11/05 05:38:41;;;;;;;1.00;0.80;;;;;;;;;;5018629;28;20029;-86
2023/11/05 05:41:15;;;;;;;0.80;0.73;;;;;;;;;;5035061;28;20046;-85
2023/11/05 05:43:45;;;;;;;0.60;0.60;;;;;;;;;;5018581;28;20034;-85
2023/11/05 05:46:21;;;;;;;0.73;0.70;;;;;;;;;;5017994;28;20026;-85
2023/11/05 05:48:59;;;;;;;1.10;0.80;;;;;;;;;;5018228;28;20029;-86
2023/11/05 05:51:37;;;;;;;0.70;0.70;;;;;;;;;;5016275;28;20026;-84
2023/11/05 05:54:05;;;;;;;0.82;0.70;;;;;;;;;;5008806;28;20096;-85
2023/11/05 05:56:36;;;;;;;1.00;0.80;;;;;;;;;;5033915;28;20422;-84
2023/11/05 05:59:23;;;;;;;0.90;0.70;;;;;;;;;;5054780;28;20363;-85
2023/11/05 06:01:55;;;;;;;0.60;0.60;;;;;;;;;;5037739;28;20037;-85
2023/11/05 06:04:21;;;;;;;0.63;0.63;;;;;;;;;;5037811;28;20035;-85
2023/11/05 06:06:48;;;;;;;0.70;0.70;;;;;;;;;;5037465;28;20033;-85
2023/11/05 06:09:19;;;;;;;0.77;0.70;;;;;;;;;;5021386;28;20064;-85
2023/11/05 06:11:48;;;;;;;0.80;0.70;;;;;;;;;;5037862;28;20029;-84
2023/11/05 06:14:17;;;;;;;0.60;0.60;;;;;;;;;;5054524;28;20049;-85
2023/11/05 06:16:46;;;;;;;0.60;0.60;;;;;;;;;;5042922;28;20093;-86
2023/11/05 06:19:15;;;;;;;0.80;0.70;;;;;;;;;;5040045;28;20051;-85
2023/11/05 06:21:45;;;;;;;0.80;0.70;;;;;;;;;;5037366;28;20461;-84
2023/11/05 06:24:16;;;;;;;0.60;0.60;;;;;;;;;;5037312;28;20071;-85
2023/11/05 06:26:46;;;;;;;0.50;0.50;;;;;;;;;;5038426;28;20029;-85
2023/11/05 06:29:13;;;;;;;0.70;0.70;;;;;;;;;;5038131;28;20117;-88
2023/11/05 06:31:42;;;;;;;0.90;0.70;;;;;;;;;;5056205;28;20584;-85
2023/11/05 06:34:08;;;;;;;0.80;0.70;;;;;;;;;;5038727;28;20028;-84
2023/11/05 06:36:55;;;;;;;0.70;0.70;;;;;;;;;;5045907;28;20036;-83
2023/11/05 06:39:22;;;;;;;0.80;0.70;;;;;;;;;;5075999;28;20021;-85
2023/11/05 06:41:49;;;;;;;1.00;0.80;;;;;;;;;;5056877;28;20029;-85
2023/11/05 06:44:30;;;;;;;0.70;0.70;;;;;;;;;;5038366;28;20055;-85
2023/11/05 06:47:05;;;;;;;0.80;0.70;;;;;;;;;;5053943;28;20036;-83
2023/11/05 06:49:31;;;;;;;0.80;0.70;;;;;;;;;;5037515;28;20067;-85
2023/11/05 06:52:01;;;;;;;0.70;0.70;;;;;;;;;;5037412;28;20032;-84
2023/11/05 06:54:27;;;;;;;0.77;0.70;;;;;;;;;;5049750;28;20055;-83
2023/11/05 06:56:53;;;;;;;0.60;0.60;;;;;;;;;;5075442;28;20409;-83
2023/11/05 06:59:20;;;;;;;0.70;0.70;;;;;;;;;;5057560;28;20025;-84
2023/11/05 07:01:48;;;;;;;0.60;0.60;;;;;;;;;;5057573;28;20032;-85
2023/11/05 07:04:14;;;;;;;0.80;0.65;;;;;;;;;;5057333;28;20035;-85
2023/11/05 07:06:40;;;;;;;0.80;0.70;;;;;;;;;;5057660;28;20027;-84
2023/11/05 07:09:08;;;;;;;0.60;0.60;;;;;;;;;;5060335;28;20024;-83
2023/11/05 07:11:35;;;;;;;0.63;0.60;;;;;;;;;;5076149;28;20043;-83
2023/11/05 07:14:01;;;;;;;0.60;0.60;;;;;;;;;;5058503;28;20024;-84
2023/11/05 07:16:28;;;;;;;0.70;0.70;;;;;;;;;;5057418;28;20105;-85
2023/11/05 07:18:54;;;;;;;0.60;0.60;;;;;;;;;;5057035;28;20111;-83
2023/11/05 07:21:20;;;;;;;0.60;0.60;;;;;;;;;;5057832;28;20044;-81
2023/11/05 07:23:47;;;;;;;0.60;0.60;;;;;;;;;;5056978;28;20020;-82
2023/11/05 07:26:16;;;;;;;0.50;0.50;;;;;;;;;;5056934;28;20512;-83
2023/11/05 07:28:44;;;;;;;0.60;0.60;;;;;;;;;;5074969;28;20095;-83
2023/11/05 07:31:21;;;;;;;0.60;0.60;;;;;;;;;;5056694;28;20020;-82
2023/11/05 07:33:48;;;;;;;0.70;0.70;;;;;;;;;;5057978;28;20099;-85
2023/11/05 07:36:15;;;;;;;0.68;0.68;;;;;;;;;;5075129;28;20052;-83
2023/11/05 07:38:41;;;;;;;0.60;0.60;;;;;;;;;;5056888;28;20025;-86
2023/11/05 07:41:08;;;;;;;0.70;0.70;;;;;;;;;;5057682;28;20098;-85
2023/11/05 07:43:34;;;;;;;0.70;0.60;;;;;;;;;;5057086;28;20020;-83
2023/11/05 07:46:01;;;;;;;0.70;0.70;;;;;;;;;;5056410;28;20036;-84
2023/11/05 07:48:27;;;;;;;0.60;0.60;;;;;;;;;;5056978;28;20024;-85
2023/11/05 07:50:53;;;;;;;0.73;0.70;;;;;;;;;;5057484;28;20028;-84
2023/11/05 07:53:20;;;;;;;0.70;0.70;;;;;;;;;;5056049;28;20390;-83
2023/11/05 07:55:46;;;;;;;0.73;0.73;;;;;;;;;;5056557;28;20036;-85
2023/11/05 07:58:13;;;;;;;0.60;0.60;;;;;;;;;;5074744;28;20416;-86
2023/11/05 08:00:44;;;;;;;0.75;0.70;;;;;;;;;;5074275;28;20031;-84
2023/11/05 08:03:10;;;;;;;0.60;0.60;;;;;;;;;;5057505;28;20427;-86
2023/11/05 08:05:36;;;;;;;0.50;0.50;;;;;;;;;;5074220;28;20535;-84
2023/11/05 08:08:03;;;;;;;0.65;0.65;;;;;;;;;;5056132;28;20040;-85
2023/11/05 08:10:32;;;;;;;0.60;0.60;;;;;;;;;;5056437;28;20024;-83
2023/11/05 08:12:58;;;;;;;0.70;0.70;;;;;;;;;;5032162;28;20128;-86
2023/11/05 08:15:24;;;;;;;0.65;0.63;;;;;;;;;;5032045;28;20042;-82
2023/11/05 08:17:50;;;;;;;0.60;0.60;;;;;;;;;;5031938;28;20041;-85
2023/11/05 08:20:16;;;;;;;0.68;0.65;;;;;;;;;;5031958;28;20490;-87
2023/11/05 08:22:43;;;;;;;0.60;0.60;;;;;;;;;;5032048;28;20551;-85
2023/11/05 08:25:12;;;;;;;1.33;1.13;;;;;;;;;;5031629;28;20029;-86
2023/11/05 08:27:42;;;;;;;0.60;0.60;;;;;;;;;;5031833;28;20042;-85
2023/11/05 08:30:11;;;;;;;0.60;0.60;;;;;;;;;;5031726;28;20026;-83
2023/11/05 08:32:42;;;;;;;0.63;0.63;;;;;;;;;;5031304;28;20069;-85
2023/11/05 08:35:09;;;;;;;0.60;0.60;;;;;;;;;;5031789;28;20021;-85
2023/11/05 08:37:36;;;;;;;0.60;0.60;;;;;;;;;;5031559;28;20349;-83
2023/11/05 08:40:13;;;;;;;0.60;0.60;;;;;;;;;;5031642;28;20087;-82
2023/11/05 08:42:39;;;;;;;0.60;0.60;;;;;;;;;;5031692;28;20057;-83
2023/11/05 08:45:06;;;;;;;0.52;0.52;;;;;;;;;;5055052;28;20040;-83
2023/11/05 08:47:33;;;;;;;0.60;0.60;;;;;;;;;;5055945;28;20032;-82
2023/11/05 08:49:59;;;;;;;0.60;0.60;;;;;;;;;;5055611;28;20035;-83
2023/11/05 08:52:26;;;;;;;0.60;0.60;;;;;;;;;;5055486;28;20021;-84
2023/11/05 08:54:52;;;;;;;0.60;0.60;;;;;;;;;;5052268;28;20083;-82
2023/11/05 08:57:18;;;;;;;0.70;0.70;;;;;;;;;;5053781;28;20029;-84
2023/11/05 08:59:45;;;;;;;0.65;0.65;;;;;;;;;;5035666;28;20048;-82
2023/11/05 09:02:12;;;;;;;0.60;0.60;;;;;;;;;;5035057;28;20029;-83
2023/11/05 09:04:38;;;;;;;0.57;0.57;;;;;;;;;;5036277;28;20025;-83
2023/11/05 09:07:06;;;;;;;0.50;0.50;;;;;;;;;;5035413;28;20025;-83
2023/11/05 09:09:32;;;;;;;1.95;1.08;;;;;;;;;;5036507;28;20025;-84
2023/11/05 09:11:58;;;;;;;0.63;0.63;;;;;;;;;;5040491;28;20469;-80
2023/11/05 09:14:24;;;;;;;0.50;0.50;;;;;;;;;;5032178;28;20030;-80
2023/11/05 09:16:50;;;;;;;0.60;0.60;;;;;;;;;;5035869;28;20021;-80
2023/11/05 09:19:17;;;;;;;0.60;0.60;;;;;;;;;;5035009;28;20165;-80
2023/11/05 09:21:45;;;;;;;0.60;0.60;;;;;;;;;;5047576;28;20028;-79
2023/11/05 09:24:11;;;;;;;0.50;0.50;;;;;;;;;;5035709;28;20025;-82
2023/11/05 09:26:37;;;;;;;0.60;0.60;;;;;;;;;;5018166;28;20025;-80
2023/11/05 09:29:06;;;;;;;0.47;0.47;;;;;;;;;;5015474;28;20088;-80
2023/11/05 09:31:33;;;;;;;0.65;0.65;;;;;;;;;;5033337;28;20109;-81
2023/11/05 09:33:59;;;;;;;0.80;0.73;;;;;;;;;;5014926;28;20057;-82
2023/11/05 09:36:26;;;;;;;0.50;0.50;;;;;;;;;;5033379;28;20488;-81
2023/11/05 09:38:54;;;;;;;0.50;0.50;;;;;;;;;;5016079;28;20120;-82
2023/11/05 09:41:20;;;;;;;0.60;0.60;;;;;;;;;;5015438;28;20021;-86
2023/11/05 09:43:49;;;;;;;0.50;0.50;;;;;;;;;;5015315;28;20356;-81
2023/11/05 09:46:16;;;;;;;0.50;0.50;;;;;;;;;;5033237;28;20025;-80
2023/11/05 09:48:42;;;;;;;0.50;0.50;;;;;;;;;;5015597;28;20026;-81
2023/11/05 09:51:12;;;;;;;0.50;0.50;;;;;;;;;;5015547;28;20030;-81
2023/11/05 09:53:39;;;;;;;0.57;0.57;;;;;;;;;;5017328;28;20080;-80
2023/11/05 09:56:05;;;;;;;0.68;0.68;;;;;;;;;;5032455;28;20038;-78
2023/11/05 09:58:32;;;;;;;0.50;0.50;;;;;;;;;;5019829;28;20029;-82
2023/11/05 10:00:58;;;;;;;0.50;0.50;;;;;;;;;;5043947;28;20536;-80
2023/11/05 10:03:27;;;;;;;1.02;0.95;;;;;;;;;;5051516;28;20021;-80
2023/11/05 10:05:55;;;;;;;0.70;0.70;;;;;;;;;;5059763;28;20033;-81
2023/11/05 10:08:22;;;;;;;0.60;0.60;;;;;;;;;;5075731;28;20036;-80
2023/11/05 10:10:49;;;;;;;0.55;0.55;;;;;;;;;;5036218;28;20025;-81
2023/11/05 10:13:16;;;;;;;0.65;0.55;;;;;;;;;;5055106;28;20089;-82
2023/11/05 10:15:42;;;;;;;0.50;0.50;;;;;;;;;;5055630;28;20383;-80
2023/11/05 10:18:12;;;;;;;0.60;0.60;;;;;;;;;;5056063;28;20024;-81
2023/11/05 10:20:53;;;;;;;0.60;0.60;;;;;;;;;;5054729;28;20028;-82
2023/11/05 10:23:19;;;;;;;0.50;0.50;;;;;;;;;;5056039;28;20025;-82
2023/11/05 10:25:50;;;;;;;0.50;0.50;;;;;;;;;;5054995;28;20029;-83
2023/11/05 10:28:16;;;;;;;0.47;0.47;;;;;;;;;;5054885;28;20049;-81
2023/11/05 10:30:45;;;;;;;0.57;0.57;;;;;;;;;;5055173;28;20052;-82
2023/11/05 10:33:12;;;;;;;0.60;0.60;;;;;;;;;;5054900;28;20425;-83
2023/11/05 10:35:39;;;;;;;0.60;0.60;;;;;;;;;;5037964;28;20112;-81
2023/11/05 10:38:08;;;;;;;0.50;0.50;;;;;;;;;;5054731;28;20424;-81
2023/11/05 10:40:34;;;;;;;0.52;0.52;;;;;;;;;;5055967;28;20032;-82
2023/11/05 10:43:01;;;;;;;0.63;0.63;;;;;;;;;;5053391;28;20095;-83
2023/11/05 10:45:27;;;;;;;0.55;0.55;;;;;;;;;;5045549;28;20120;-82
2023/11/05 10:47:53;;;;;;;0.60;0.60;;;;;;;;;;5015254;28;20045;-80
2023/11/05 10:50:24;;;;;;;0.95;0.85;;;;;;;;;;5032697;28;20036;-82
2023/11/05 10:52:52;;;;;;;0.70;0.70;;;;;;;;;;5025681;28;20063;-81
2023/11/05 10:55:20;;;;;;;0.50;0.50;;;;;;;;;;5027172;28;20643;-81
2023/11/05 10:57:49;;;;;;;0.90;0.90;;;;;;;;;;5031628;28;20124;-82
2023/11/05 11:00:15;;;;;;;0.70;0.70;;;;;;;;;;5032955;28;20026;-80
2023/11/05 11:02:45;;;;;;;0.50;0.50;;;;;;;;;;5032720;28;20060;-82
2023/11/05 11:05:15;;;;;;;0.50;0.50;;;;;;;;;;5032348;28;20022;-82
2023/11/05 11:07:41;;;;;;;0.60;0.60;;;;;;;;;;5032473;28;20025;-79
2023/11/05 11:10:09;;;;;;;0.55;0.55;;;;;;;;;;5032652;28;20026;-82
2023/11/05 11:12:36;;;;;;;1.13;0.88;;;;;;;;;;5032393;28;20036;-79
2023/11/05 11:15:12;;;;;;;0.50;0.50;;;;;;;;;;5042953;28;20059;-80
2023/11/05 11:17:39;;;;;;;0.60;0.60;;;;;;;;;;5054372;28;20219;-80
2023/11/05 11:20:11;;;;;;;0.43;0.43;;;;;;;;;;5054776;28;20096;-80
2023/11/05 11:22:44;;;;;;;0.60;0.60;;;;;;;;;;5048090;28;20020;-79
2023/11/05 11:25:12;;;;;;;0.50;0.50;;;;;;;;;;5045670;28;20032;-79
2023/11/05 11:27:41;;;;;;;0.50;0.50;;;;;;;;;;5054401;28;20032;-81
2023/11/05 11:30:11;;;;;;;0.52;0.52;;;;;;;;;;5054361;28;20025;-80
2023/11/05 11:32:37;;;;;;;0.50;0.50;;;;;;;;;;5047476;28;20049;-83
2023/11/05 11:35:04;;;;;;;0.70;0.70;;;;;;;;;;5045732;28;20092;-79
2023/11/05 11:37:31;;;;;;;0.50;0.50;;;;;;;;;;5058177;28;20028;-81
2023/11/05 11:39:59;;;;;;;0.50;0.50;;;;;;;;;;5052247;28;20013;-80
2023/11/05 11:42:25;;;;;;;0.40;0.40;;;;;;;;;;5052717;28;20083;-81
2023/11/05 11:44:51;;;;;;;0.55;0.55;;;;;;;;;;5036122;28;20021;-82
2023/11/05 11:47:22;;;;;;;0.50;0.50;;;;;;;;;;5053524;28;20039;-81
2023/11/05 11:49:49;;;;;;;0.63;0.60;;;;;;;;;;5052329;28;20179;-84
2023/11/05 11:52:15;;;;;;;0.40;0.40;;;;;;;;;;5050840;28;20059;-80
2023/11/05 11:54:44;;;;;;;0.50;0.50;;;;;;;;;;5046279;28;20045;-82
2023/11/05 11:57:12;;;;;;;0.40;0.40;;;;;;;;;;5054051;28;20025;-81
2023/11/05 11:59:39;;;;;;;0.40;0.40;;;;;;;;;;5036064;28;20035;-81
2023/11/05 12:02:06;;;;;;;0.40;0.40;;;;;;;;;;5037036;28;20021;-80
2023/11/05 12:04:32;;;;;;;0.40;0.40;;;;;;;;;;5048186;28;20021;-80
2023/11/05 12:07:04;;;;;;;0.40;0.40;;;;;;;;;;5035911;28;20382;-82
2023/11/05 12:09:32;;;;;;;0.40;0.40;;;;;;;;;;5053746;28;20067;-80
2023/11/05 12:11:58;;;;;;;0.47;0.47;;;;;;;;;;5054046;28;20077;-80
2023/11/05 12:14:26;;;;;;;0.40;0.40;;;;;;;;;;5053080;28;20535;-79
2023/11/05 12:16:53;;;;;;;0.30;0.30;;;;;;;;;;5035963;28;20478;-80
2023/11/05 12:19:19;;;;;;;0.40;0.40;;;;;;;;;;5036167;28;20028;-79
2023/11/05 12:21:45;;;;;;;0.40;0.40;;;;;;;;;;5035329;28;20021;-79
2023/11/05 12:24:14;;;;;;;1.45;1.05;;;;;;;;;;5035836;28;20048;-80
2023/11/05 12:26:40;;;;;;;0.40;0.40;;;;;;;;;;5035239;28;20060;-80
2023/11/05 12:29:10;;;;;;;0.70;0.70;;;;;;;;;;5035091;28;20386;-80
2023/11/05 12:31:36;;;;;;;0.40;0.40;;;;;;;;;;5035255;28;20442;-79
2023/11/05 12:34:02;;;;;;;0.40;0.40;;;;;;;;;;5035481;28;20049;-79
2023/11/05 12:36:28;;;;;;;0.40;0.40;;;;;;;;;;5034664;28;20109;-79
2023/11/05 12:38:55;;;;;;;0.50;0.50;;;;;;;;;;5035192;28;20017;-78
2023/11/05 12:41:21;;;;;;;0.40;0.40;;;;;;;;;;5035231;28;20382;-78
2023/11/05 12:43:47;;;;;;;0.40;0.40;;;;;;;;;;5052478;28;20036;-78
2023/11/05 12:46:14;;;;;;;0.55;0.55;;;;;;;;;;5035243;28;20067;-77
2023/11/05 12:48:40;;;;;;;0.47;0.47;;;;;;;;;;5034867;28;20033;-77
2023/11/05 12:51:06;;;;;;;0.60;0.60;;;;;;;;;;5052189;28;20474;-78
2023/11/05 12:53:32;;;;;;;0.43;0.43;;;;;;;;;;5034819;28;20049;-78
2023/11/05 12:56:04;;;;;;;0.50;0.50;;;;;;;;;;5034934;28;20090;-78
2023/11/05 12:58:31;;;;;;;0.77;0.77;;;;;;;;;;5052497;28;20017;-78
2023/11/05 13:00:57;;;;;;;1.60;0.88;;;;;;;;;;5034941;28;20363;-79
2023/11/05 13:03:24;;;;;;;0.60;0.60;;;;;;;;;;5053036;28;20040;-79
2023/11/05 13:05:50;;;;;;;0.43;0.43;;;;;;;;;;5035048;28;20061;-81
2023/11/05 13:08:16;;;;;;;0.50;0.50;;;;;;;;;;5051578;28;20090;-78
2023/11/05 13:10:43;;;;;;;0.40;0.40;;;;;;;;;;5051998;28;20051;-78
2023/11/05 13:13:09;;;;;;;0.60;0.60;;;;;;;;;;5052491;28;20367;-78
2023/11/05 13:15:36;;;;;;;0.40;0.40;;;;;;;;;;5051490;28;20021;-80
2023/11/05 13:18:02;;;;;;;0.50;0.50;;;;;;;;;;5053236;28;20025;-79
2023/11/05 13:20:28;;;;;;;0.40;0.40;;;;;;;;;;5053394;28;20447;-78
2023/11/05 13:22:55;;;;;;;0.50;0.50;;;;;;;;;;5051807;28;20047;-79
2023/11/05 13:25:21;;;;;;;0.45;0.45;;;;;;;;;;5053470;28;20032;-79
2023/11/05 13:27:47;;;;;;;0.40;0.40;;;;;;;;;;5035278;28;20034;-78
2023/11/05 13:30:16;;;;;;;0.75;0.50;;;;;;;;;;5037326;28;20074;-78
2023/11/05 13:32:46;;;;;;;0.90;0.65;;;;;;;;;;5074285;28;20036;-78
2023/11/05 13:35:14;;;;;;;0.50;0.50;;;;;;;;;;5066658;28;20037;-78
2023/11/05 13:37:40;;;;;;;0.40;0.40;;;;;;;;;;5050560;28;20040;-79
2023/11/05 13:40:07;;;;;;;0.70;0.70;;;;;;;;;;5057031;28;20382;-79
2023/11/05 13:42:36;;;;;;;0.40;0.40;;;;;;;;;;5042636;28;20153;-80
2023/11/05 13:45:04;;;;;;;0.40;0.40;;;;;;;;;;5050411;28;20053;-79
2023/11/05 13:47:33;;;;;;;0.60;0.60;;;;;;;;;;5054053;28;20099;-78
2023/11/05 13:49:59;;;;;;;0.40;0.40;;;;;;;;;;5039322;28;20021;-80
2023/11/05 13:52:25;;;;;;;0.60;0.60;;;;;;;;;;5038683;28;20459;-79
2023/11/05 13:54:51;;;;;;;0.40;0.40;;;;;;;;;;5035081;28;20084;-81
2023/11/05 13:57:17;;;;;;;0.68;0.68;;;;;;;;;;5035650;28;20033;-81
2023/11/05 13:59:45;;;;;;;0.40;0.40;;;;;;;;;;5036280;28;20021;-81
2023/11/05 14:02:11;;;;;;;0.40;0.40;;;;;;;;;;5035564;28;20060;-81
2023/11/05 14:04:37;;;;;;;0.30;0.30;;;;;;;;;;5035537;28;20049;-80
2023/11/05 14:07:04;;;;;;;0.50;0.50;;;;;;;;;;5035021;28;20390;-81
2023/11/05 14:09:31;;;;;;;0.40;0.40;;;;;;;;;;5035419;28;20137;-82
2023/11/05 14:12:03;;;;;;;0.40;0.40;;;;;;;;;;5036653;28;20411;-80
2023/11/05 14:14:29;;;;;;;0.40;0.40;;;;;;;;;;5034936;28;20021;-81
2023/11/05 14:16:56;;;;;;;0.40;0.40;;;;;;;;;;5035163;28;20068;-81
2023/11/05 14:19:25;;;;;;;0.40;0.40;;;;;;;;;;5035181;28;20030;-81
2023/11/05 14:21:51;;;;;;;0.40;0.40;;;;;;;;;;5035084;28;20099;-82
2023/11/05 14:24:18;;;;;;;0.80;0.55;;;;;;;;;;5034707;28;20021;-81
2023/11/05 14:26:45;;;;;;;0.30;0.30;;;;;;;;;;5043878;28;20479;-79
2023/11/05 14:29:11;;;;;;;0.40;0.40;;;;;;;;;;5038145;28;20033;-83
2023/11/05 14:31:38;;;;;;;0.47;0.47;;;;;;;;;;5045979;28;20046;-82
2023/11/05 14:34:04;;;;;;;0.30;0.30;;;;;;;;;;5046119;28;20538;-83
2023/11/05 14:36:33;;;;;;;0.65;0.65;;;;;;;;;;5038244;28;20485;-82
2023/11/05 14:39:01;;;;;;;0.52;0.52;;;;;;;;;;5038068;28;20075;-83
2023/11/05 14:41:27;;;;;;;0.50;0.50;;;;;;;;;;5037964;28;20029;-83
2023/11/05 14:43:53;;;;;;;0.40;0.40;;;;;;;;;;5038365;28;20044;-81
2023/11/05 14:46:20;;;;;;;0.60;0.57;;;;;;;;;;5037948;28;20086;-81
2023/11/05 14:48:47;;;;;;;0.40;0.40;;;;;;;;;;5037988;28;20064;-84
2023/11/05 14:51:13;;;;;;;0.60;0.60;;;;;;;;;;5038200;28;20040;-82
2023/11/05 14:53:44;;;;;;;0.40;0.40;;;;;;;;;;5040376;28;20053;-83
2023/11/05 14:56:10;;;;;;;0.60;0.60;;;;;;;;;;5054717;28;20441;-82
2023/11/05 14:58:38;;;;;;;0.40;0.40;;;;;;;;;;5051796;28;20096;-82
2023/11/05 15:01:05;;;;;;;1.17;0.70;;;;;;;;;;5057793;28;20071;-83
2023/11/05 15:03:31;;;;;;;0.82;0.80;;;;;;;;;;5057519;28;20031;-82
2023/11/05 15:05:57;;;;;;;0.55;0.55;;;;;;;;;;5057547;28;20020;-83
2023/11/05 15:08:24;;;;;;;0.50;0.50;;;;;;;;;;5075542;28;20560;-82
2023/11/05 15:10:50;;;;;;;0.40;0.40;;;;;;;;;;5057245;28;20055;-81
2023/11/05 15:13:16;;;;;;;0.30;0.30;;;;;;;;;;5058200;28;20068;-85
2023/11/05 15:15:43;;;;;;;0.40;0.40;;;;;;;;;;5058305;28;20093;-81